EST,Max TemperatureF,Mean TemperatureF,Min TemperatureF,Max Dew PointF,MeanDew PointF,Min DewpointF,Max Humidity, Mean Humidity, Min Humidity, Max Sea Level PressureIn, Mean Sea Level PressureIn, Min Sea Level PressureIn, Max VisibilityMiles, Mean VisibilityMiles, Min VisibilityMiles, Max Wind SpeedMPH, Mean Wind SpeedMPH, Max Gust SpeedMPH,PrecipitationIn, CloudCover, Events, WindDirDegrees
2014-1-1,50,38,26,34,31,27,100,82,50,30.36,30.26,30.11,10,9,5,9,1,,0.00,1,,172
2014-1-2,44,34,24,45,35,16,100,88,69,30.21,29.99,29.80,10,8,2,23,7,32,0.02,7,Rain-Snow,256
2014-1-3,32,26,19,18,14,10,93,65,44,30.45,30.36,30.21,10,10,10,24,13,31,0.00,2,Snow,344
2014-1-4,41,30,19,34,23,16,100,71,48,30.40,30.30,30.18,10,10,10,14,3,17,0.00,4,,182
2014-1-5,50,42,35,46,39,32,100,88,76,30.18,29.98,29.74,10,9,4,13,5,20,0.01,8,Rain,182
2014-1-6,37,24,10,36,12,0,100,70,49,30.46,30.23,29.87,10,10,7,23,14,31,0.00,4,Rain-Snow,318
2014-1-7,21,13,5,10,2,-4,92,64,46,30.58,30.51,30.48,10,10,10,16,9,23,0.00,0,,342
2014-1-8,41,26,10,23,15,10,100,72,36,30.58,30.49,30.43,10,10,2,6,1,,0.00,0,,344
2014-1-9,50,38,26,41,30,23,93,76,46,30.51,30.43,30.35,10,10,5,12,1,,0.00,5,Rain,185
2014-1-10,50,44,39,50,44,39,100,100,93,30.34,30.17,29.97,10,4,1,7,2,,0.02,8,Rain,202
2014-1-11,62,54,46,57,46,32,100,77,34,29.97,29.80,29.68,10,9,2,16,6,32,0.07,5,Rain-Thunderstorm,234
2014-1-12,55,42,30,39,35,30,100,79,41,30.18,30.10,29.97,10,9,0,7,2,,0.00,0,Fog,192
2014-1-13,51,42,32,46,39,32,100,90,58,30.15,30.03,29.87,10,9,4,9,2,,0.00,5,Rain,162
2014-1-14,55,44,33,46,40,32,100,82,41,30.01,29.93,29.82,10,9,3,13,4,22,0.01,3,Rain,301
2014-1-15,44,36,28,37,27,16,100,66,31,30.10,30.02,29.96,10,10,10,15,6,24,0.00,4,,329
2014-1-16,41,31,21,21,19,18,93,62,39,30.13,30.04,29.93,10,10,10,9,4,,0.00,1,,159
2014-1-17,46,38,30,32,22,14,81,57,39,30.12,29.99,29.92,10,10,10,15,6,26,0.00,4,,228
2014-1-18,41,31,21,16,14,12,74,48,31,30.22,30.09,29.95,10,10,10,16,6,22,0.00,2,,215
2014-1-19,50,40,30,30,26,16,93,62,41,30.10,30.03,29.92,10,10,10,12,4,16,0.00,1,,178
2014-1-20,60,43,26,32,30,27,100,70,34,30.06,29.97,29.87,10,10,10,7,2,,0.00,0,,155
2014-1-21,44,34,23,34,26,9,100,73,54,30.09,29.90,29.75,10,10,2,23,8,32,0.00,6,Rain-Snow,322
2014-1-22,32,22,12,12,4,0,74,49,25,30.19,30.13,30.06,10,10,10,16,8,23,0.00,1,,337
2014-1-23,32,23,14,19,10,1,93,63,32,30.60,30.37,30.18,10,10,10,16,4,25,0.00,1,,340
2014-1-24,30,19,8,7,2,-6,79,52,21,30.67,30.52,30.26,10,10,10,10,6,,0.00,0,,347
2014-1-25,41,29,17,21,12,1,93,52,38,30.26,30.00,29.86,10,10,10,12,5,17,0.00,4,,173
2014-1-26,53,36,19,32,25,18,100,68,41,30.00,29.93,29.86,10,10,10,9,2,18,0.00,0,,169
2014-1-27,50,38,24,34,23,1,81,50,29,30.20,30.00,29.85,10,10,10,20,7,28,0.00,3,,341
2014-1-28,24,20,17,18,11,1,93,67,36,30.29,30.23,30.18,10,9,1,20,14,29,0.00,6,Snow,346
2014-1-29,28,18,8,10,3,0,79,54,31,30.40,30.33,30.29,10,10,10,16,10,23,0.00,0,,336
2014-1-30,41,22,3,18,10,1,100,64,33,30.38,30.27,30.15,10,10,3,10,2,,0.00,0,,168
2014-1-31,51,37,23,21,18,14,93,55,22,30.25,30.18,30.13,10,10,10,6,1,,0.00,0,,168